Hassan Al-Sheikh

Recruteur en chef - Al-Taawoun
20 Nov 2027
Samedi
Processus

Personnalité

Adaptabilité (11) Ambition (14) Controverse (10) Loyauté (6) Pression (2) Professionnalisme (9) Sportivité (8) Tempérament (6)

Profil

Style d'entraînement Démocratique
Diplôme National B
Détermination 4
Gestion des joueurs 6
Motivation 9
Discipline 6
Satisfaction professionnelle
93%
Fatigue
0%
Rôle Recruteur en chef
Salaire 78.0K p/s
Contrat 14.03.2028

Performance

Comportement Bon
Efficacité de l'entraînement
46%
Développement des joueurs
45%
Prévention des blessures
35%
Mise en place tactique
60%

Événements récents

A participé à une réunion de recrutement maintenant
A participé à une réunion de recrutement 7j
A participé à une réunion de recrutement 7j
A participé à une réunion de recrutement 7j
A participé à une réunion de recrutement 14j
A participé à une réunion de recrutement 14j
A participé à une réunion de recrutement 14j
A participé à une réunion de recrutement 21j

Suivi en cours

60
Joueur Club Statut Capacité Confiance Observé Dernière observation Dernier vote
Giuseppe Pezzella Cremonese Actif 144 / 142 40% 1 12.08.2027 -
Rob Street Lincoln City Actif 115 / 98 40% 1 31.05.2027 -
Midana Cassamá Portimonense Actif 107 / 104 40% 1 29.05.2027 -
Moussa Koné Al-Ra'ed Actif 110 / 115 40% 6 24.05.2027 -
Isaac Tshibangu Emirates Club Actif 108 / 101 40% 4 24.05.2027 -
Peter Olayinka Al-Wehda Actif 121 / 115 40% 6 22.05.2027 -
Kane Drummond Oldham Athletic Actif 79 / 103 40% 2 20.05.2027 -
Wilfried Kanga Al-Fateh Actif 125 / 118 40% 6 19.05.2027 -
Jordan Larsson Al-Ettifaq Actif 133 / 117 40% 3 16.05.2027 -
Thalys Almería Actif 111 / 115 40% 3 14.05.2027 -
Törles Knöll Al-Ta'ee Actif 107 / 97 40% 3 12.05.2027 -
Prince Ibara Al-Njoom Actif 109 / 98 40% 3 11.05.2027 -
Michael Cheek Bromley Actif 110 / 87 40% 2 02.05.2027 -
Leandro Antunes Al-Riyadh Actif 115 / 116 40% 3 30.04.2027 -
Joshua King Al-Khaleej Actif 122 / 130 40% 11 29.04.2027 -
Mats Seuntjens Groningen Actif 104 / 115 40% 1 29.04.2027 -
Alexandr Yushin Torpedo Moscow Actif 114 / 93 40% 4 23.04.2027 -
Ibourahima Baldé Giugliano Actif 94 / 92 40% 2 22.04.2027 -
Oumar Camara Vitoria Guimaraes Actif 122 / 123 40% 2 19.04.2027 -
Abdoulay Diaby Al-Batin Actif 89 / 104 40% 3 13.04.2027 -
Simy Al-Orobah Actif 129 / 114 40% 2 12.04.2027 Plus d'infos
Lahcen Gourbi Police Union Actif 99 / 84 40% 1 08.04.2027 -
Albert Amoah Hajer Actif 88 / 93 40% 1 04.04.2027 -
Aaron Drinan Swindon Town Actif 99 / 102 40% 1 02.04.2027 -
Mahmoud Hassan Al Shabab Actif 88 / 90 40% 1 26.03.2027 -
Lars Veldwijk Al-Nahda Actif 95 / 102 40% 2 25.03.2027 Plus d'infos
Kamran Aliev SKA Khabarovsk Actif 95 / 98 40% 2 23.03.2027 -
Jalen Blesa Rio Ave Actif 126 / 125 40% 1 20.03.2027 -
Roger Martínez Al-Shabab Actif 128 / 123 40% 2 17.03.2027 -
German Onugkha Rodina Actif 108 / 124 40% 1 10.03.2027 -
Vyacheslav Grulev Nizhniy Novgorod Actif 102 / 107 40% 2 09.03.2027 -
Job Ochieng Real Sociedad Actif 96 / 102 40% 1 08.03.2027 -
Dilan Ortíz Ufa Actif 97 / 97 40% 2 04.03.2027 -
Yegor Golenkov Rostov Actif 135 / 126 40% 1 30.12.2026 -
Nabil Alioui Najran Actif 117 / 105 40% 1 28.12.2026 -
Fantamady Diarra Najran Actif 102 / 107 40% 2 26.12.2026 -
Edarlyn Reyes Arsenal Tula Actif 122 / 114 40% 1 21.12.2026 -
Wilfried Eza Al-Faisaly Actif 96 / 97 40% 1 16.12.2026 -
Chinedu Geoffrey Krylya Sovetov Actif 121 / 117 40% 2 14.12.2026 -
Danila Shilov Dinamo Stavropol Actif 82 / 85 40% 1 12.12.2026 -
Brayan Gil Baltika Actif 130 / 124 40% 3 10.12.2026 -
Zinho Gano Actif 112 / 108 40% 1 07.12.2026 -
Tenton Yenne Baltika Actif 109 / 116 40% 1 28.11.2026 -
Ivan Sergeev Dinamo Moscow Actif 116 / 131 40% 1 24.11.2026 -
Bahlul Mammadov Inter Actif 110 / 108 40% 1 10.11.2026 -
Dramane Kamagaté USM Alger Actif 94 / 107 40% 2 03.11.2026 -
Nikos Karelis Sliema Wanderers Actif 93 / 102 40% 1 03.11.2026 -
Emmanuel Nweke Smouha Actif 97 / 99 40% 1 26.10.2026 -
Jhon Murillo America de Cali Actif 103 / 128 40% 1 21.10.2026 -
Hicham Khaloua Charleroi Actif 107 / 105 40% 1 20.10.2026 -
Manu Nieto Andorra Actif 131 / 107 40% 1 19.10.2026 -
Georginio Wijnaldum Al-Ettifaq Actif 131 / 129 40% 1 17.10.2026 -
Alain Akono Hajer Actif 102 / 90 40% 2 16.10.2026 -
Somila Ntsundwana Hajer Actif 104 / 94 40% 2 13.10.2026 -
Yousef Al-Shammari Al-Faisaly Actif 105 / 100 40% 1 10.10.2026 -
Yoel Marchi Vélez Actif 69 / 98 40% 1 19.08.2026 -
Mohamed Raafat Al Ahly Actif 82 / 81 40% 1 18.08.2026 -
Mohamed Benlebna ES Setif Actif 87 / 76 40% 1 17.08.2026 -
David Kalokoh Ajax Actif 109 / 114 40% 1 17.08.2026 -
Tomás Romero Unión de Santa Fe Actif 110 / 109 40% 1 02.08.2026 -